Date,TemperatureHighF,TemperatureAvgF,TemperatureLowF,DewpointHighF,DewpointAvgF,DewpointLowF,HumidityHigh,HumidityAvg,HumidityLow,PressureMaxIn,PressureMinIn,WindSpeedMaxMPH,WindSpeedAvgMPH,GustSpeedMaxMPH,PrecipitationSumIn
2012-12-1,20.8,18.6,6.3,18.6,14.7,2.3,91,85,75,30.69,30.58,2,0,4,0.00
2012-12-2,38.6,35.7,30.0,37.3,34.6,29.0,97,96,93,30.37,29.93,2,1,5,0.27
2012-12-3,46.5,38.8,28.1,41.9,33.8,26.9,96,82,72,30.28,30.00,7,2,14,0.01
2012-12-4,42.9,37.5,28.9,41.9,36.0,27.9,97,94,90,30.30,29.89,3,0,5,0.00
2012-12-5,47.7,37.9,28.1,42.5,29.3,19.4,97,71,60,30.00,29.78,10,4,18,0.34
2012-12-6,35.6,27.9,20.2,18.7,16.9,15.5,85,64,48,30.28,30.22,6,2,12,0.00
2012-12-7,36.8,31.2,21.1,26.5,23.3,18.1,88,73,55,30.22,30.03,3,0,6,0.00
2012-12-8,35.5,32.3,28.1,32.1,28.8,24.8,93,87,81,30.03,29.85,1,0,2,0.01
2012-12-9,42.0,35.1,27.9,27.5,25.3,23.1,84,68,50,30.30,30.18,7,2,11,0.00
2012-12-10,35.1,31.6,28.7,34.3,30.6,27.4,97,96,95,29.92,29.47,1,0,2,0.04
2012-12-11,35.3,29.9,25.5,27.6,21.2,17.5,76,70,62,30.06,29.79,6,2,14,0.27
2012-12-12,37.6,30.1,22.1,21.2,19.6,18.0,91,66,48,30.38,30.25,4,1,9,0.00
2012-12-13,39.8,31.8,23.4,25.1,22.3,20.5,92,70,49,30.44,30.25,5,1,11,0.00
2012-12-14,39.8,37.1,32.7,29.4,26.4,22.2,76,65,52,30.10,29.99,4,2,15,0.00
2012-12-15,32.2,28.4,23.0,7.5,2.7,-1.4,51,33,24,30.32,30.28,4,2,12,0.00
2012-12-16,18.2,16.9,11.8,15.4,11.6,7.0,91,80,65,30.37,30.22,2,0,3,0.00
2012-12-17,27.4,24.6,18.3,26.2,22.7,16.2,95,92,89,30.17,30.01,0,0,0,0.00
2012-12-18,35.2,34.1,32.5,33.9,32.8,31.2,97,95,93,29.74,29.47,2,0,5,1.05
2012-12-19,39.1,35.6,32.5,35.5,32.7,31.5,97,89,76,29.95,29.61,4,1,5,0.74
2012-12-20,36.6,33.9,30.3,29.6,28.7,27.2,90,81,71,30.19,30.08,2,0,4,0.03
2012-12-27,28.2,27.8,27.5,26.7,26.0,25.5,95,93,91,29.70,29.58,5,3,14,0.00
2012-12-28,29.6,25.3,22.6,20.8,18.5,16.7,80,75,68,29.96,29.81,10,4,15,0.00
2012-12-30,18.5,13.6,9.5,10.6,5.4,1.4,72,69,66,29.86,29.57,13,6,24,0.00
2012-12-31,29.2,27.4,21.2,22.8,19.7,12.9,79,73,65,29.85,29.63,7,3,19,0.00